Terminal Aerodrome Forecast
Issued by NWS

Home | Current Version | Previous Version | Text Only | Print | Product List | Glossary On
Versions: 1 2 3 4 5 6 7 8 9 10 11 12 13 14
000
FTUS45 KGGW 280521
TAFGDV
TAF
KGDV 280521Z 2806/0106 07006KT P6SM BKN020
     FM280800 07005KT P6SM BKN015
     FM281800 20008KT P6SM VCSH OVC025
     FM282300 22007KT P6SM VCSH BKN030
     FM010300 26006KT P6SM BKN040=

USA.gov is the U.S. government's official web portal to all federal, state and local government web resources and services.